sensor_id;sensor_type;location;lat;lon;timestamp;temperature;humidity
20594;DHT22;10455;48.732;10.266;2022-10-13T00:01:23;10.50;99.90
20594;DHT22;10455;48.732;10.266;2022-10-13T00:06:25;10.40;99.90
20594;DHT22;10455;48.732;10.266;2022-10-13T00:11:29;10.60;99.90
20594;DHT22;10455;48.732;10.266;2022-10-13T00:16:32;10.80;99.90
20594;DHT22;10455;48.732;10.266;2022-10-13T00:21:34;10.90;99.90
20594;DHT22;10455;48.732;10.266;2022-10-13T00:26:38;11.10;99.90
20594;DHT22;10455;48.732;10.266;2022-10-13T00:31:40;11.20;99.90
20594;DHT22;10455;48.732;10.266;2022-10-13T00:36:42;11.30;99.90
20594;DHT22;10455;48.732;10.266;2022-10-13T00:41:45;11.40;99.90
20594;DHT22;10455;48.732;10.266;2022-10-13T00:46:47;11.40;99.90
20594;DHT22;10455;48.732;10.266;2022-10-13T00:51:49;11.60;99.90
20594;DHT22;10455;48.732;10.266;2022-10-13T00:56:53;11.70;99.90
20594;DHT22;10455;48.732;10.266;2022-10-13T01:01:57;11.70;99.90
20594;DHT22;10455;48.732;10.266;2022-10-13T01:07:00;11.70;99.90
20594;DHT22;10455;48.732;10.266;2022-10-13T01:12:13;11.60;99.90
20594;DHT22;10455;48.732;10.266;2022-10-13T01:17:27;11.60;99.90
20594;DHT22;10455;48.732;10.266;2022-10-13T01:22:43;11.60;99.90
20594;DHT22;10455;48.732;10.266;2022-10-13T01:27:57;11.60;99.90
20594;DHT22;10455;48.732;10.266;2022-10-13T01:33:09;11.60;99.90
20594;DHT22;10455;48.732;10.266;2022-10-13T01:38:25;11.40;99.90
20594;DHT22;10455;48.732;10.266;2022-10-13T01:43:33;11.30;99.90
20594;DHT22;10455;48.732;10.266;2022-10-13T01:48:39;11.30;99.90
20594;DHT22;10455;48.732;10.266;2022-10-13T01:53:44;11.40;99.90
20594;DHT22;10455;48.732;10.266;2022-10-13T01:58:48;11.40;99.90
20594;DHT22;10455;48.732;10.266;2022-10-13T02:04:00;11.40;99.90
20594;DHT22;10455;48.732;10.266;2022-10-13T02:09:11;11.40;99.90
20594;DHT22;10455;48.732;10.266;2022-10-13T02:14:17;11.40;99.90
20594;DHT22;10455;48.732;10.266;2022-10-13T02:19:21;11.40;99.90
20594;DHT22;10455;48.732;10.266;2022-10-13T02:24:24;11.30;99.90
20594;DHT22;10455;48.732;10.266;2022-10-13T02:29:26;11.40;99.90
20594;DHT22;10455;48.732;10.266;2022-10-13T02:34:29;11.50;99.90
20594;DHT22;10455;48.732;10.266;2022-10-13T02:39:31;11.60;99.90
20594;DHT22;10455;48.732;10.266;2022-10-13T02:44:33;11.60;99.90
20594;DHT22;10455;48.732;10.266;2022-10-13T02:49:37;11.50;99.90
20594;DHT22;10455;48.732;10.266;2022-10-13T02:54:42;11.30;99.90
20594;DHT22;10455;48.732;10.266;2022-10-13T02:59:44;11.30;99.90
20594;DHT22;10455;48.732;10.266;2022-10-13T03:04:48;11.20;99.90
20594;DHT22;10455;48.732;10.266;2022-10-13T03:09:50;11.20;99.90
20594;DHT22;10455;48.732;10.266;2022-10-13T03:14:52;11.10;99.90
20594;DHT22;10455;48.732;10.266;2022-10-13T03:19:56;11.10;99.90
20594;DHT22;10455;48.732;10.266;2022-10-13T03:24:58;11.10;99.90
20594;DHT22;10455;48.732;10.266;2022-10-13T03:30:00;11.20;99.90
20594;DHT22;10455;48.732;10.266;2022-10-13T03:35:04;11.20;99.90
20594;DHT22;10455;48.732;10.266;2022-10-13T03:40:07;11.10;99.90
20594;DHT22;10455;48.732;10.266;2022-10-13T03:45:11;11.00;99.90
20594;DHT22;10455;48.732;10.266;2022-10-13T03:50:14;11.10;99.90
20594;DHT22;10455;48.732;10.266;2022-10-13T03:55:17;11.20;99.90
20594;DHT22;10455;48.732;10.266;2022-10-13T04:00:19;11.30;99.90
20594;DHT22;10455;48.732;10.266;2022-10-13T04:05:23;11.30;99.90
20594;DHT22;10455;48.732;10.266;2022-10-13T04:10:25;11.30;99.90
20594;DHT22;10455;48.732;10.266;2022-10-13T04:15:28;11.30;99.90
20594;DHT22;10455;48.732;10.266;2022-10-13T04:20:35;11.20;99.90
20594;DHT22;10455;48.732;10.266;2022-10-13T04:25:38;11.30;99.90
20594;DHT22;10455;48.732;10.266;2022-10-13T04:30:40;11.30;99.90
20594;DHT22;10455;48.732;10.266;2022-10-13T04:35:44;11.20;99.90
20594;DHT22;10455;48.732;10.266;2022-10-13T04:40:46;11.10;99.90
20594;DHT22;10455;48.732;10.266;2022-10-13T04:45:50;10.80;99.90
20594;DHT22;10455;48.732;10.266;2022-10-13T04:50:59;10.80;99.90
20594;DHT22;10455;48.732;10.266;2022-10-13T04:56:02;10.70;99.90
20594;DHT22;10455;48.732;10.266;2022-10-13T05:01:06;10.70;99.90
20594;DHT22;10455;48.732;10.266;2022-10-13T05:06:14;10.70;99.90
20594;DHT22;10455;48.732;10.266;2022-10-13T05:11:17;10.70;99.90
20594;DHT22;10455;48.732;10.266;2022-10-13T05:16:21;10.80;99.90
20594;DHT22;10455;48.732;10.266;2022-10-13T05:21:27;10.70;99.90
20594;DHT22;10455;48.732;10.266;2022-10-13T05:26:29;10.80;99.90
20594;DHT22;10455;48.732;10.266;2022-10-13T05:31:34;10.90;99.90
20594;DHT22;10455;48.732;10.266;2022-10-13T05:36:37;10.80;99.90
20594;DHT22;10455;48.732;10.266;2022-10-13T05:41:39;10.80;99.90
20594;DHT22;10455;48.732;10.266;2022-10-13T05:46:42;10.70;99.90
20594;DHT22;10455;48.732;10.266;2022-10-13T05:51:49;10.70;99.90
20594;DHT22;10455;48.732;10.266;2022-10-13T05:56:54;10.80;99.90
20594;DHT22;10455;48.732;10.266;2022-10-13T06:01:58;11.00;99.90
20594;DHT22;10455;48.732;10.266;2022-10-13T06:07:03;11.00;99.90
20594;DHT22;10455;48.732;10.266;2022-10-13T06:12:06;11.10;99.90
20594;DHT22;10455;48.732;10.266;2022-10-13T06:17:08;11.20;99.90
20594;DHT22;10455;48.732;10.266;2022-10-13T06:22:12;11.40;99.90
20594;DHT22;10455;48.732;10.266;2022-10-13T06:27:14;11.50;99.90
20594;DHT22;10455;48.732;10.266;2022-10-13T06:32:16;11.70;99.90
20594;DHT22;10455;48.732;10.266;2022-10-13T06:37:19;11.80;99.90
20594;DHT22;10455;48.732;10.266;2022-10-13T06:42:22;11.90;99.90
20594;DHT22;10455;48.732;10.266;2022-10-13T06:47:24;12.10;99.90
20594;DHT22;10455;48.732;10.266;2022-10-13T06:52:27;12.20;99.90
20594;DHT22;10455;48.732;10.266;2022-10-13T06:57:30;12.20;99.90
20594;DHT22;10455;48.732;10.266;2022-10-13T07:02:33;12.30;99.90
20594;DHT22;10455;48.732;10.266;2022-10-13T07:07:36;12.50;99.90
20594;DHT22;10455;48.732;10.266;2022-10-13T07:12:38;12.70;99.90
20594;DHT22;10455;48.732;10.266;2022-10-13T07:17:40;13.10;99.90
20594;DHT22;10455;48.732;10.266;2022-10-13T07:22:44;13.10;99.90
20594;DHT22;10455;48.732;10.266;2022-10-13T07:27:46;13.10;99.90
20594;DHT22;10455;48.732;10.266;2022-10-13T07:32:48;13.40;99.90
20594;DHT22;10455;48.732;10.266;2022-10-13T07:37:52;13.50;99.90
20594;DHT22;10455;48.732;10.266;2022-10-13T07:42:55;13.60;99.90
20594;DHT22;10455;48.732;10.266;2022-10-13T07:47:57;13.60;99.90
20594;DHT22;10455;48.732;10.266;2022-10-13T07:53:00;14.30;99.90
20594;DHT22;10455;48.732;10.266;2022-10-13T07:58:03;15.10;99.90
20594;DHT22;10455;48.732;10.266;2022-10-13T08:03:05;15.00;99.90
20594;DHT22;10455;48.732;10.266;2022-10-13T08:08:08;14.70;99.90
20594;DHT22;10455;48.732;10.266;2022-10-13T08:13:11;14.70;99.90
20594;DHT22;10455;48.732;10.266;2022-10-13T08:18:13;15.10;99.90
20594;DHT22;10455;48.732;10.266;2022-10-13T08:23:17;15.90;99.90
20594;DHT22;10455;48.732;10.266;2022-10-13T08:28:22;16.30;99.90
20594;DHT22;10455;48.732;10.266;2022-10-13T08:33:25;16.40;99.90
20594;DHT22;10455;48.732;10.266;2022-10-13T08:38:29;16.60;99.90
20594;DHT22;10455;48.732;10.266;2022-10-13T08:43:31;16.50;99.90
20594;DHT22;10455;48.732;10.266;2022-10-13T08:48:35;16.70;99.90
20594;DHT22;10455;48.732;10.266;2022-10-13T08:53:43;16.10;99.90
20594;DHT22;10455;48.732;10.266;2022-10-13T08:58:48;16.00;99.90
20594;DHT22;10455;48.732;10.266;2022-10-13T09:03:53;16.00;99.90
20594;DHT22;10455;48.732;10.266;2022-10-13T09:09:00;15.70;99.90
20594;DHT22;10455;48.732;10.266;2022-10-13T09:14:04;15.40;99.90
20594;DHT22;10455;48.732;10.266;2022-10-13T09:19:18;15.40;99.90
20594;DHT22;10455;48.732;10.266;2022-10-13T09:24:23;15.20;99.90
20594;DHT22;10455;48.732;10.266;2022-10-13T09:29:26;14.90;99.90
20594;DHT22;10455;48.732;10.266;2022-10-13T09:34:28;15.70;99.90
20594;DHT22;10455;48.732;10.266;2022-10-13T09:39:32;16.90;99.90
20594;DHT22;10455;48.732;10.266;2022-10-13T09:44:34;16.80;99.90
20594;DHT22;10455;48.732;10.266;2022-10-13T09:49:38;16.40;99.90
20594;DHT22;10455;48.732;10.266;2022-10-13T09:54:48;16.20;99.90
20594;DHT22;10455;48.732;10.266;2022-10-13T09:59:52;16.30;99.90
20594;DHT22;10455;48.732;10.266;2022-10-13T10:04:57;17.00;99.90
20594;DHT22;10455;48.732;10.266;2022-10-13T10:10:05;17.30;99.90
20594;DHT22;10455;48.732;10.266;2022-10-13T10:15:17;17.10;99.90
20594;DHT22;10455;48.732;10.266;2022-10-13T10:20:44;17.20;99.90
20594;DHT22;10455;48.732;10.266;2022-10-13T10:25:50;17.70;99.90
20594;DHT22;10455;48.732;10.266;2022-10-13T10:31:03;17.90;99.90
20594;DHT22;10455;48.732;10.266;2022-10-13T10:36:10;18.40;99.90
20594;DHT22;10455;48.732;10.266;2022-10-13T10:41:31;18.10;99.90
20594;DHT22;10455;48.732;10.266;2022-10-13T10:46:41;18.70;99.90
20594;DHT22;10455;48.732;10.266;2022-10-13T10:51:44;19.00;99.90
20594;DHT22;10455;48.732;10.266;2022-10-13T10:56:52;19.00;99.90
20594;DHT22;10455;48.732;10.266;2022-10-13T11:02:09;19.00;99.90
20594;DHT22;10455;48.732;10.266;2022-10-13T11:13:25;19.10;99.90
20594;DHT22;10455;48.732;10.266;2022-10-13T11:24:49;20.00;99.90
20594;DHT22;10455;48.732;10.266;2022-10-13T11:29:55;21.20;99.90
20594;DHT22;10455;48.732;10.266;2022-10-13T11:34:58;22.10;99.90
20594;DHT22;10455;48.732;10.266;2022-10-13T11:40:14;22.20;99.90
20594;DHT22;10455;48.732;10.266;2022-10-13T11:45:34;22.30;99.90
20594;DHT22;10455;48.732;10.266;2022-10-13T11:50:42;21.30;99.90
20594;DHT22;10455;48.732;10.266;2022-10-13T11:55:48;20.70;99.90
20594;DHT22;10455;48.732;10.266;2022-10-13T12:00:55;20.50;99.90
20594;DHT22;10455;48.732;10.266;2022-10-13T12:06:00;20.20;99.90
20594;DHT22;10455;48.732;10.266;2022-10-13T12:11:04;20.70;99.90
20594;DHT22;10455;48.732;10.266;2022-10-13T12:16:12;20.40;99.90
20594;DHT22;10455;48.732;10.266;2022-10-13T12:21:17;20.20;99.90
20594;DHT22;10455;48.732;10.266;2022-10-13T12:26:22;20.70;99.90
20594;DHT22;10455;48.732;10.266;2022-10-13T12:31:29;20.70;99.90
20594;DHT22;10455;48.732;10.266;2022-10-13T12:36:33;20.40;99.90
20594;DHT22;10455;48.732;10.266;2022-10-13T12:41:37;20.20;99.90
20594;DHT22;10455;48.732;10.266;2022-10-13T12:46:45;20.20;99.90
20594;DHT22;10455;48.732;10.266;2022-10-13T12:51:49;20.00;99.90
20594;DHT22;10455;48.732;10.266;2022-10-13T12:56:55;19.80;99.90
20594;DHT22;10455;48.732;10.266;2022-10-13T13:02:02;19.70;99.90
20594;DHT22;10455;48.732;10.266;2022-10-13T13:07:19;19.80;99.90
20594;DHT22;10455;48.732;10.266;2022-10-13T13:12:26;19.80;99.90
20594;DHT22;10455;48.732;10.266;2022-10-13T13:17:31;19.90;99.90
20594;DHT22;10455;48.732;10.266;2022-10-13T13:22:33;19.00;99.90
20594;DHT22;10455;48.732;10.266;2022-10-13T13:27:38;19.10;99.90
20594;DHT22;10455;48.732;10.266;2022-10-13T13:32:42;19.20;99.90
20594;DHT22;10455;48.732;10.266;2022-10-13T13:37:46;19.40;99.90
20594;DHT22;10455;48.732;10.266;2022-10-13T13:42:50;19.30;99.90
20594;DHT22;10455;48.732;10.266;2022-10-13T13:47:54;19.50;99.90
20594;DHT22;10455;48.732;10.266;2022-10-13T13:52:56;18.80;99.90
20594;DHT22;10455;48.732;10.266;2022-10-13T13:57:58;18.90;99.90
20594;DHT22;10455;48.732;10.266;2022-10-13T14:03:02;18.90;99.90
20594;DHT22;10455;48.732;10.266;2022-10-13T14:08:05;19.40;99.90
20594;DHT22;10455;48.732;10.266;2022-10-13T14:13:07;20.30;99.90
20594;DHT22;10455;48.732;10.266;2022-10-13T14:18:11;20.00;99.90
20594;DHT22;10455;48.732;10.266;2022-10-13T14:23:13;19.50;99.90
20594;DHT22;10455;48.732;10.266;2022-10-13T14:28:15;19.60;99.90
20594;DHT22;10455;48.732;10.266;2022-10-13T14:33:19;19.10;99.90
20594;DHT22;10455;48.732;10.266;2022-10-13T14:38:21;19.30;99.90
20594;DHT22;10455;48.732;10.266;2022-10-13T14:43:23;18.80;99.90
20594;DHT22;10455;48.732;10.266;2022-10-13T14:48:29;19.20;99.90
20594;DHT22;10455;48.732;10.266;2022-10-13T14:53:32;19.10;99.90
20594;DHT22;10455;48.732;10.266;2022-10-13T14:58:35;17.70;99.90
20594;DHT22;10455;48.732;10.266;2022-10-13T15:03:39;17.30;99.90
20594;DHT22;10455;48.732;10.266;2022-10-13T15:08:42;17.30;99.90
20594;DHT22;10455;48.732;10.266;2022-10-13T15:13:44;17.20;99.90
20594;DHT22;10455;48.732;10.266;2022-10-13T15:18:48;17.10;99.90
20594;DHT22;10455;48.732;10.266;2022-10-13T15:23:51;16.60;99.90
20594;DHT22;10455;48.732;10.266;2022-10-13T15:28:53;16.40;99.90
20594;DHT22;10455;48.732;10.266;2022-10-13T15:33:56;16.00;99.90
20594;DHT22;10455;48.732;10.266;2022-10-13T15:38:59;15.90;99.90
20594;DHT22;10455;48.732;10.266;2022-10-13T15:44:01;15.80;99.90
20594;DHT22;10455;48.732;10.266;2022-10-13T15:49:05;15.80;99.90
20594;DHT22;10455;48.732;10.266;2022-10-13T15:54:18;15.60;99.90
20594;DHT22;10455;48.732;10.266;2022-10-13T15:59:21;15.40;99.90
20594;DHT22;10455;48.732;10.266;2022-10-13T16:04:26;15.30;99.90
20594;DHT22;10455;48.732;10.266;2022-10-13T16:09:28;15.00;99.90
20594;DHT22;10455;48.732;10.266;2022-10-13T16:14:31;14.80;99.90
20594;DHT22;10455;48.732;10.266;2022-10-13T16:19:34;14.80;99.90
20594;DHT22;10455;48.732;10.266;2022-10-13T16:24:37;14.90;99.90
20594;DHT22;10455;48.732;10.266;2022-10-13T16:29:39;14.80;99.90
20594;DHT22;10455;48.732;10.266;2022-10-13T16:34:45;14.70;99.90
20594;DHT22;10455;48.732;10.266;2022-10-13T16:39:47;14.40;99.90
20594;DHT22;10455;48.732;10.266;2022-10-13T16:44:49;14.30;99.90
20594;DHT22;10455;48.732;10.266;2022-10-13T16:49:53;14.30;99.90
20594;DHT22;10455;48.732;10.266;2022-10-13T16:54:55;14.20;99.90
20594;DHT22;10455;48.732;10.266;2022-10-13T16:59:57;14.20;99.90
20594;DHT22;10455;48.732;10.266;2022-10-13T17:05:01;14.10;99.90
20594;DHT22;10455;48.732;10.266;2022-10-13T17:10:03;14.00;99.90
20594;DHT22;10455;48.732;10.266;2022-10-13T17:15:07;13.90;99.90
20594;DHT22;10455;48.732;10.266;2022-10-13T17:20:13;13.80;99.90
20594;DHT22;10455;48.732;10.266;2022-10-13T17:25:15;13.90;99.90
20594;DHT22;10455;48.732;10.266;2022-10-13T17:30:17;13.80;99.90
20594;DHT22;10455;48.732;10.266;2022-10-13T17:35:21;13.60;99.90
20594;DHT22;10455;48.732;10.266;2022-10-13T17:40:23;13.90;99.90
20594;DHT22;10455;48.732;10.266;2022-10-13T17:45:25;14.00;99.90
20594;DHT22;10455;48.732;10.266;2022-10-13T17:50:29;14.00;99.90
20594;DHT22;10455;48.732;10.266;2022-10-13T17:55:31;13.90;99.90
20594;DHT22;10455;48.732;10.266;2022-10-13T18:00:33;13.80;99.90
20594;DHT22;10455;48.732;10.266;2022-10-13T18:05:42;13.80;99.90
20594;DHT22;10455;48.732;10.266;2022-10-13T18:10:44;13.90;99.90
20594;DHT22;10455;48.732;10.266;2022-10-13T18:15:46;13.90;99.90
20594;DHT22;10455;48.732;10.266;2022-10-13T18:20:50;13.80;99.90
20594;DHT22;10455;48.732;10.266;2022-10-13T18:25:52;13.80;99.90
20594;DHT22;10455;48.732;10.266;2022-10-13T18:30:54;13.80;99.90
20594;DHT22;10455;48.732;10.266;2022-10-13T18:35:57;13.70;99.90
20594;DHT22;10455;48.732;10.266;2022-10-13T18:41:00;13.70;99.90
20594;DHT22;10455;48.732;10.266;2022-10-13T18:46:03;13.70;99.90
20594;DHT22;10455;48.732;10.266;2022-10-13T18:51:08;13.70;99.90
20594;DHT22;10455;48.732;10.266;2022-10-13T18:56:12;13.80;99.90
20594;DHT22;10455;48.732;10.266;2022-10-13T19:01:18;13.80;99.90
20594;DHT22;10455;48.732;10.266;2022-10-13T19:06:24;13.70;99.90
20594;DHT22;10455;48.732;10.266;2022-10-13T19:11:28;13.70;99.90
20594;DHT22;10455;48.732;10.266;2022-10-13T19:16:30;13.60;99.90
20594;DHT22;10455;48.732;10.266;2022-10-13T19:21:35;13.60;99.90
20594;DHT22;10455;48.732;10.266;2022-10-13T19:26:37;13.50;99.90
20594;DHT22;10455;48.732;10.266;2022-10-13T19:31:41;13.50;99.90
20594;DHT22;10455;48.732;10.266;2022-10-13T19:36:45;13.50;99.90
20594;DHT22;10455;48.732;10.266;2022-10-13T19:41:48;13.50;99.90
20594;DHT22;10455;48.732;10.266;2022-10-13T19:46:51;13.50;99.90
20594;DHT22;10455;48.732;10.266;2022-10-13T19:51:56;13.40;99.90
20594;DHT22;10455;48.732;10.266;2022-10-13T19:56:58;13.40;99.90
20594;DHT22;10455;48.732;10.266;2022-10-13T20:02:00;13.40;99.90
20594;DHT22;10455;48.732;10.266;2022-10-13T20:07:04;13.40;99.90
20594;DHT22;10455;48.732;10.266;2022-10-13T20:12:06;13.40;99.90
20594;DHT22;10455;48.732;10.266;2022-10-13T20:17:08;13.40;99.90
20594;DHT22;10455;48.732;10.266;2022-10-13T20:22:12;13.40;99.90
20594;DHT22;10455;48.732;10.266;2022-10-13T20:27:14;13.30;99.90
20594;DHT22;10455;48.732;10.266;2022-10-13T20:32:16;13.30;99.90
20594;DHT22;10455;48.732;10.266;2022-10-13T20:37:20;13.30;99.90
20594;DHT22;10455;48.732;10.266;2022-10-13T20:42:22;13.40;99.90
20594;DHT22;10455;48.732;10.266;2022-10-13T20:47:24;13.40;99.90
20594;DHT22;10455;48.732;10.266;2022-10-13T20:52:28;13.30;99.90
20594;DHT22;10455;48.732;10.266;2022-10-13T20:57:30;13.30;99.90
20594;DHT22;10455;48.732;10.266;2022-10-13T21:02:32;13.20;99.90
20594;DHT22;10455;48.732;10.266;2022-10-13T21:07:36;13.10;99.90
20594;DHT22;10455;48.732;10.266;2022-10-13T21:12:38;13.10;99.90
20594;DHT22;10455;48.732;10.266;2022-10-13T21:17:40;13.10;99.90
20594;DHT22;10455;48.732;10.266;2022-10-13T21:22:44;13.00;99.90
20594;DHT22;10455;48.732;10.266;2022-10-13T21:27:46;12.90;99.90
20594;DHT22;10455;48.732;10.266;2022-10-13T21:32:48;13.00;99.90
20594;DHT22;10455;48.732;10.266;2022-10-13T21:42:55;12.80;99.90
20594;DHT22;10455;48.732;10.266;2022-10-13T21:47:57;12.70;99.90
20594;DHT22;10455;48.732;10.266;2022-10-13T21:53:01;12.70;99.90
20594;DHT22;10455;48.732;10.266;2022-10-13T21:58:03;12.40;99.90
20594;DHT22;10455;48.732;10.266;2022-10-13T22:03:05;12.30;99.90
20594;DHT22;10455;48.732;10.266;2022-10-13T22:08:09;12.30;99.90
20594;DHT22;10455;48.732;10.266;2022-10-13T22:13:11;12.40;99.90
20594;DHT22;10455;48.732;10.266;2022-10-13T22:18:13;12.30;99.90
20594;DHT22;10455;48.732;10.266;2022-10-13T22:23:17;12.20;99.90
20594;DHT22;10455;48.732;10.266;2022-10-13T22:28:19;12.30;99.90
20594;DHT22;10455;48.732;10.266;2022-10-13T22:33:22;12.30;99.90
20594;DHT22;10455;48.732;10.266;2022-10-13T22:38:26;12.10;99.90
20594;DHT22;10455;48.732;10.266;2022-10-13T22:43:28;11.80;99.90
20594;DHT22;10455;48.732;10.266;2022-10-13T22:48:31;11.70;99.90
20594;DHT22;10455;48.732;10.266;2022-10-13T22:53:35;11.60;99.90
20594;DHT22;10455;48.732;10.266;2022-10-13T22:58:38;11.60;99.90
20594;DHT22;10455;48.732;10.266;2022-10-13T23:03:41;11.60;99.90
20594;DHT22;10455;48.732;10.266;2022-10-13T23:08:45;11.80;99.90
20594;DHT22;10455;48.732;10.266;2022-10-13T23:13:47;11.90;99.90
20594;DHT22;10455;48.732;10.266;2022-10-13T23:18:49;11.90;99.90
20594;DHT22;10455;48.732;10.266;2022-10-13T23:23:57;11.70;99.90
20594;DHT22;10455;48.732;10.266;2022-10-13T23:28:59;11.80;99.90
20594;DHT22;10455;48.732;10.266;2022-10-13T23:34:01;11.90;99.90
20594;DHT22;10455;48.732;10.266;2022-10-13T23:39:06;12.10;99.90
20594;DHT22;10455;48.732;10.266;2022-10-13T23:44:08;12.20;99.90
20594;DHT22;10455;48.732;10.266;2022-10-13T23:49:11;12.20;99.90
20594;DHT22;10455;48.732;10.266;2022-10-13T23:54:15;12.20;99.90
20594;DHT22;10455;48.732;10.266;2022-10-13T23:59:17;12.20;99.90
